createdAt,value
2023-03-30T00:00:57.073Z,100283.69
2023-03-30T00:03:24.150Z,100277.72
2023-03-30T00:05:57.172Z,100264.97
2023-03-30T00:08:28.874Z,100266.34
2023-03-30T00:11:07.911Z,100248.19
2023-03-30T00:13:37.292Z,100242.50
2023-03-30T00:16:06.320Z,100240.59
2023-03-30T00:18:34.380Z,100239.00
2023-03-30T00:21:02.998Z,100242.78
2023-03-30T00:23:30.833Z,100234.41
2023-03-30T00:25:57.467Z,100235.47
2023-03-30T00:28:25.385Z,100226.81
2023-03-30T00:30:53.517Z,100213.00
2023-03-30T00:33:27.522Z,100222.75
2023-03-30T00:36:00.734Z,100208.94
2023-03-30T00:38:27.941Z,100204.06
2023-03-30T00:40:57.246Z,100204.34
2023-03-30T00:43:25.467Z,100192.41
2023-03-30T00:45:52.144Z,100189.97
2023-03-30T00:48:32.480Z,100188.09
2023-03-30T00:51:09.596Z,100188.94
2023-03-30T00:53:41.347Z,100194.06
2023-03-30T00:56:10.940Z,100199.19
2023-03-30T00:58:40.878Z,100202.19
2023-03-30T01:01:10.803Z,100198.13
2023-03-30T01:03:45.604Z,100192.44
2023-03-30T01:06:14.160Z,100191.63
2023-03-30T01:08:42.482Z,100192.47
2023-03-30T01:11:08.992Z,100186.22
2023-03-30T01:13:39.726Z,100180.00
2023-03-30T01:16:33.325Z,100164.56
2023-03-30T01:19:37.835Z,100164.03
2023-03-30T01:22:19.492Z,100148.59
2023-03-30T01:25:20.550Z,100144.00
2023-03-30T01:28:04.486Z,100140.19
2023-03-30T01:30:38.913Z,100140.22
2023-03-30T01:33:51.609Z,100135.34
2023-03-30T01:36:18.041Z,100132.88
2023-03-30T01:38:44.393Z,100126.69
2023-03-30T01:41:26.625Z,100112.88
2023-03-30T01:44:02.173Z,100115.84
2023-03-30T01:46:34.703Z,100108.53
2023-03-30T01:49:26.054Z,100100.16
2023-03-30T01:52:02.527Z,100101.78
2023-03-30T01:54:38.962Z,100092.84
2023-03-30T01:57:15.339Z,100092.84
2023-03-30T01:59:58.984Z,100099.59
2023-03-30T02:02:29.772Z,100087.69
2023-03-30T02:04:59.241Z,100078.75
2023-03-30T02:07:32.040Z,100076.56
2023-03-30T02:10:03.114Z,100070.38
2023-03-30T02:12:30.817Z,100065.72
2023-03-30T02:15:02.077Z,100066.25
2023-03-30T02:17:30.489Z,100059.25
2023-03-30T02:19:59.048Z,100058.41
2023-03-30T02:22:27.152Z,100057.09
2023-03-30T02:24:56.272Z,100050.31
2023-03-30T02:27:24.995Z,100035.44
2023-03-30T02:29:52.455Z,100006.44
2023-03-30T02:32:32.471Z,99993.41
2023-03-30T02:35:30.802Z,100003.69
2023-03-30T02:38:00.667Z,100000.44
2023-03-30T02:40:48.830Z,100005.34
2023-03-30T02:43:24.381Z,100011.53
2023-03-30T02:46:11.441Z,100006.13
2023-03-30T02:49:07.423Z,100014.78
2023-03-30T02:51:49.097Z,100016.13
2023-03-30T02:54:48.817Z,100026.06
2023-03-30T02:57:55.668Z,100017.84
2023-03-30T03:01:04.796Z,100017.66
2023-03-30T03:03:46.193Z,100024.78
2023-03-30T03:06:15.155Z,100009.13
2023-03-30T03:08:50.443Z,100002.69
2023-03-30T03:11:22.636Z,100010.09
2023-03-30T03:13:49.865Z,100014.78
2023-03-30T03:16:17.343Z,100007.00
2023-03-30T03:19:05.628Z,99999.84
2023-03-30T03:21:32.165Z,99993.47
2023-03-30T03:23:59.015Z,99988.22
2023-03-30T03:26:37.909Z,99980.78
2023-03-30T03:29:04.461Z,99985.78
2023-03-30T03:31:31.147Z,99995.06
2023-03-30T03:33:59.237Z,99983.66
2023-03-30T03:36:44.193Z,99986.00
2023-03-30T03:39:10.715Z,99989.56
2023-03-30T03:41:37.505Z,99984.19
2023-03-30T03:44:03.936Z,99981.78
2023-03-30T03:46:30.652Z,99962.53
2023-03-30T03:48:57.116Z,99983.59
2023-03-30T03:51:24.756Z,99977.22
2023-03-30T03:53:51.476Z,99972.06
2023-03-30T03:56:17.907Z,99979.50
2023-03-30T03:58:44.393Z,99979.94
2023-03-30T04:01:14.400Z,99971.47
2023-03-30T04:03:41.701Z,99978.84
2023-03-30T04:06:08.221Z,99976.91
2023-03-30T04:08:35.776Z,99965.16
2023-03-30T04:11:12.047Z,99954.41
2023-03-30T04:14:04.978Z,99954.38
2023-03-30T04:16:39.129Z,99944.38
2023-03-30T04:19:27.886Z,99944.38
2023-03-30T04:22:06.290Z,99938.66
2023-03-30T04:24:53.934Z,99931.38
2023-03-30T04:27:39.139Z,99931.16
2023-03-30T04:30:30.562Z,99927.16
2023-03-30T04:33:37.956Z,99923.06
2023-03-30T04:36:25.930Z,99921.88
2023-03-30T04:39:06.960Z,99912.63
2023-03-30T04:41:56.256Z,99919.09
2023-03-30T04:44:36.132Z,99928.13
2023-03-30T04:47:20.762Z,99919.50
2023-03-30T04:50:10.706Z,99930.88
2023-03-30T04:52:55.728Z,99921.75
2023-03-30T04:55:42.774Z,99931.56
2023-03-30T04:58:29.304Z,99928.91
2023-03-30T05:01:15.874Z,99926.13
2023-03-30T05:04:00.977Z,99923.09
2023-03-30T05:06:49.758Z,99930.66
2023-03-30T05:09:35.546Z,99928.91
2023-03-30T05:12:15.637Z,99921.56
2023-03-30T05:14:50.684Z,99918.53
2023-03-30T05:17:35.248Z,99928.09
2023-03-30T05:20:22.382Z,99926.31
2023-03-30T05:23:07.382Z,99913.44
2023-03-30T05:25:53.246Z,99912.31
2023-03-30T05:28:38.258Z,99915.91
2023-03-30T05:31:33.926Z,99912.69
2023-03-30T05:34:06.630Z,99908.03
2023-03-30T05:36:45.367Z,99913.78
2023-03-30T05:39:25.927Z,99902.44
2023-03-30T05:42:04.260Z,99902.94
2023-03-30T05:44:41.548Z,99912.13
2023-03-30T05:47:28.524Z,99912.94
2023-03-30T05:50:14.298Z,99917.06
2023-03-30T05:52:53.347Z,99925.22
2023-03-30T05:55:37.441Z,99930.13
2023-03-30T05:58:27.472Z,99926.53
2023-03-30T06:01:09.296Z,99917.38
2023-03-30T06:03:39.798Z,99913.72
2023-03-30T06:06:09.215Z,99903.41
2023-03-30T06:08:36.639Z,99905.63
2023-03-30T06:11:06.081Z,99898.47
2023-03-30T06:13:43.743Z,99899.81
2023-03-30T06:16:10.862Z,99895.34
2023-03-30T06:18:38.422Z,99901.72
2023-03-30T06:21:08.550Z,99894.38
2023-03-30T06:23:53.661Z,99886.72
2023-03-30T06:26:41.185Z,99892.50
2023-03-30T06:29:07.704Z,99886.94
2023-03-30T06:31:34.510Z,99885.16
2023-03-30T06:34:33.335Z,99884.84
2023-03-30T06:37:01.077Z,99881.63
2023-03-30T06:39:28.217Z,99881.94
2023-03-30T06:41:54.666Z,99883.91
2023-03-30T06:44:34.277Z,99883.91
2023-03-30T06:47:05.500Z,99885.72
2023-03-30T06:49:32.724Z,99888.31
2023-03-30T06:52:22.567Z,99886.16
2023-03-30T06:54:49.557Z,99881.31
2023-03-30T06:57:16.290Z,99895.03
2023-03-30T06:59:42.919Z,99903.09
2023-03-30T07:02:30.157Z,99903.09
2023-03-30T07:05:10.096Z,99906.09
2023-03-30T07:07:46.381Z,99913.25
2023-03-30T07:10:12.868Z,99916.66
2023-03-30T07:12:40.781Z,99914.44
2023-03-30T07:15:08.820Z,99915.38
2023-03-30T07:17:36.494Z,99916.88
2023-03-30T07:20:05.855Z,99914.25
2023-03-30T07:22:33.629Z,99914.56
2023-03-30T07:25:04.667Z,99905.13
2023-03-30T07:27:31.360Z,99901.69
2023-03-30T07:30:10.187Z,99896.31
2023-03-30T07:32:42.452Z,99903.06
2023-03-30T07:35:09.534Z,99902.94
2023-03-30T07:37:39.817Z,99908.38
2023-03-30T07:40:10.499Z,99909.38
2023-03-30T07:42:39.852Z,99907.81
2023-03-30T07:45:07.688Z,99907.63
2023-03-30T07:47:34.396Z,99911.22
2023-03-30T07:50:04.016Z,99902.03
2023-03-30T07:52:31.145Z,99901.28
2023-03-30T07:55:02.768Z,99910.28
2023-03-30T07:57:52.552Z,99912.19
2023-03-30T08:00:20.736Z,99906.16
2023-03-30T08:03:06.095Z,99903.97
2023-03-30T08:05:32.663Z,99902.03
2023-03-30T08:08:07.939Z,99909.53
2023-03-30T08:10:38.243Z,99913.81
2023-03-30T08:13:04.706Z,99916.22
2023-03-30T08:15:38.188Z,99918.94
2023-03-30T08:18:08.262Z,99919.28
2023-03-30T08:20:37.922Z,99909.31
2023-03-30T08:23:05.393Z,99907.78
2023-03-30T08:25:32.359Z,99910.25
2023-03-30T08:27:59.516Z,99900.50
2023-03-30T08:30:29.938Z,99916.91
2023-03-30T08:32:58.648Z,99919.63
2023-03-30T08:35:26.072Z,99921.06
2023-03-30T08:37:52.571Z,99920.56
2023-03-30T08:40:19.963Z,99905.31
2023-03-30T08:43:15.089Z,99911.59
2023-03-30T08:45:43.136Z,99911.44
2023-03-30T08:48:22.675Z,99907.16
2023-03-30T08:51:05.796Z,99906.06
2023-03-30T08:53:34.072Z,99907.16
2023-03-30T08:56:15.423Z,99909.91
2023-03-30T08:58:46.286Z,99904.13
2023-03-30T09:01:23.020Z,99905.44
2023-03-30T09:03:59.459Z,99906.88
2023-03-30T09:06:50.136Z,99899.47
2023-03-30T09:09:19.925Z,99917.66
2023-03-30T09:11:53.886Z,99929.09
2023-03-30T09:14:34.164Z,99934.00
2023-03-30T09:17:12.014Z,99927.50
2023-03-30T09:19:54.764Z,99939.34
2023-03-30T09:22:23.954Z,99933.84
2023-03-30T09:24:51.473Z,99925.28
2023-03-30T09:27:39.260Z,99914.72
2023-03-30T09:30:18.123Z,99920.38
2023-03-30T09:32:52.061Z,99922.72
2023-03-30T09:35:24.840Z,99938.00
2023-03-30T09:37:51.282Z,99925.91
2023-03-30T09:40:24.753Z,99929.31
2023-03-30T09:43:25.225Z,99931.19
2023-03-30T09:45:52.438Z,99919.34
2023-03-30T09:48:19.007Z,99930.25
2023-03-30T09:50:46.749Z,99917.19
2023-03-30T09:53:34.780Z,99930.56
2023-03-30T09:56:10.294Z,99931.50
2023-03-30T09:58:37.939Z,99931.34
2023-03-30T10:01:18.374Z,99927.81
2023-03-30T10:03:47.140Z,99930.38
2023-03-30T10:06:19.144Z,99943.03
2023-03-30T10:08:55.365Z,99938.56
2023-03-30T10:11:38.735Z,99945.25
2023-03-30T10:14:11.247Z,99945.09
2023-03-30T10:16:37.784Z,99952.91
2023-03-30T10:19:18.625Z,99935.84
2023-03-30T10:21:46.928Z,99933.00
2023-03-30T10:24:28.492Z,99943.16
2023-03-30T10:27:13.226Z,99942.72
2023-03-30T10:29:48.629Z,99956.56
2023-03-30T10:32:21.793Z,99965.06
2023-03-30T10:34:54.210Z,99966.88
2023-03-30T10:37:39.741Z,99952.94
2023-03-30T10:40:18.456Z,99958.94
2023-03-30T10:42:47.413Z,99941.44
2023-03-30T10:45:19.722Z,99946.59
2023-03-30T10:48:09.986Z,99954.25
2023-03-30T10:50:56.322Z,99945.34
2023-03-30T10:53:47.218Z,99951.44
2023-03-30T10:56:27.740Z,99965.59
2023-03-30T10:59:17.958Z,99960.63
2023-03-30T11:02:35.565Z,99969.59
2023-03-30T11:05:43.756Z,99973.38
2023-03-30T11:08:51.857Z,99973.38
2023-03-30T11:11:22.754Z,99982.28
2023-03-30T11:14:04.323Z,99985.97
2023-03-30T11:16:57.850Z,99975.44
2023-03-30T11:19:31.557Z,99968.13
2023-03-30T11:22:36.628Z,99975.50
2023-03-30T11:25:19.027Z,99974.22
2023-03-30T11:27:57.843Z,99959.47
2023-03-30T11:30:30.142Z,99959.78
2023-03-30T11:33:16.101Z,99958.84
2023-03-30T11:36:06.503Z,99938.59
2023-03-30T11:38:55.669Z,99934.09
2023-03-30T11:41:36.679Z,99947.28
2023-03-30T11:44:03.229Z,99936.97
2023-03-30T11:46:45.688Z,99937.28
2023-03-30T11:49:36.375Z,99936.44
2023-03-30T11:52:23.693Z,99943.84
2023-03-30T11:55:04.229Z,99941.88
2023-03-30T11:58:00.729Z,99956.97
2023-03-30T12:00:45.120Z,99950.72
2023-03-30T12:03:40.989Z,99944.16
2023-03-30T12:06:27.305Z,99950.16
2023-03-30T12:09:21.968Z,99940.03
2023-03-30T12:12:15.631Z,99938.91
2023-03-30T12:15:26.321Z,99938.94
2023-03-30T12:18:14.517Z,99947.44
2023-03-30T12:20:51.873Z,99940.31
2023-03-30T12:23:33.689Z,99963.28
2023-03-30T12:26:21.580Z,99948.22
2023-03-30T12:29:26.276Z,99955.91
2023-03-30T12:31:53.330Z,99955.50
2023-03-30T12:34:21.441Z,99952.31
2023-03-30T12:37:10.074Z,99952.28
2023-03-30T12:39:59.785Z,99941.78
2023-03-30T12:42:35.006Z,99944.84
2023-03-30T12:45:07.718Z,99945.31
2023-03-30T12:47:58.255Z,99954.16
2023-03-30T12:50:46.406Z,99978.78
2023-03-30T12:53:45.528Z,99992.84
2023-03-30T12:56:28.897Z,99995.72
2023-03-30T12:59:13.641Z,99984.38
2023-03-30T13:02:20.348Z,99962.59
2023-03-30T13:04:48.932Z,99975.47
2023-03-30T13:07:23.559Z,99969.56
2023-03-30T13:10:04.878Z,99978.44
2023-03-30T13:12:35.234Z,99974.28
2023-03-30T13:15:41.740Z,99967.22
2023-03-30T13:18:11.588Z,99957.75
2023-03-30T13:20:47.324Z,99963.56
2023-03-30T13:23:14.145Z,99953.25
2023-03-30T13:25:44.581Z,99962.28
2023-03-30T13:28:45.578Z,99963.22
2023-03-30T13:31:47.073Z,99963.84
2023-03-30T13:34:44.970Z,99952.50
2023-03-30T13:37:40.155Z,99983.59
2023-03-30T13:40:27.703Z,99955.41
2023-03-30T13:43:23.833Z,99967.47
2023-03-30T13:46:13.204Z,99978.88
2023-03-30T13:49:11.458Z,99966.56
2023-03-30T13:51:42.364Z,99967.47
2023-03-30T13:54:16.350Z,99967.53
2023-03-30T13:56:48.374Z,99971.03
2023-03-30T13:59:21.872Z,99963.47
2023-03-30T14:01:53.726Z,99964.09
2023-03-30T14:04:20.346Z,99961.91
2023-03-30T14:06:51.240Z,99990.44
2023-03-30T14:09:25.010Z,99988.03
2023-03-30T14:11:59.672Z,99986.34
2023-03-30T14:14:38.626Z,99982.69
2023-03-30T14:17:23.811Z,99980.94
2023-03-30T14:20:09.382Z,99976.41
2023-03-30T14:22:40.911Z,99978.19
2023-03-30T14:25:25.428Z,99973.50
2023-03-30T14:27:51.883Z,99972.50
2023-03-30T14:30:30.812Z,99971.22
2023-03-30T14:33:17.165Z,99978.84
2023-03-30T14:35:50.050Z,99979.66
2023-03-30T14:38:23.868Z,99977.72
2023-03-30T14:40:52.164Z,99985.44
2023-03-30T14:43:24.899Z,99980.00
2023-03-30T14:45:57.647Z,99983.34
2023-03-30T14:48:34.163Z,99986.75
2023-03-30T14:51:02.477Z,99985.75
2023-03-30T14:53:30.991Z,99971.34
2023-03-30T14:56:00.639Z,99965.59
2023-03-30T14:58:31.097Z,99982.38
2023-03-30T15:01:00.382Z,99969.94
2023-03-30T15:03:34.568Z,99976.22
2023-03-30T15:06:03.278Z,99981.66
2023-03-30T15:08:39.345Z,99978.66
2023-03-30T15:11:12.696Z,99986.75
2023-03-30T15:13:43.340Z,99983.19
2023-03-30T15:16:16.636Z,99980.16
2023-03-30T15:18:43.352Z,99991.69
2023-03-30T15:21:12.528Z,99996.16
2023-03-30T15:23:43.095Z,100008.97
2023-03-30T15:26:11.383Z,100029.69
2023-03-30T15:28:48.643Z,100033.56
2023-03-30T15:31:16.181Z,100034.38
2023-03-30T15:33:51.954Z,100033.97
2023-03-30T15:36:19.878Z,100024.47
2023-03-30T15:38:49.282Z,100019.72
2023-03-30T15:41:17.815Z,100015.06
2023-03-30T15:43:54.730Z,100008.47
2023-03-30T15:46:21.756Z,100008.78
2023-03-30T15:48:50.657Z,100015.50
2023-03-30T15:51:25.904Z,100010.19
2023-03-30T15:53:56.790Z,100014.47
2023-03-30T15:56:30.651Z,100017.31
2023-03-30T15:58:58.621Z,100013.38
2023-03-30T16:01:38.748Z,100001.50
2023-03-30T16:04:05.849Z,99997.44
2023-03-30T16:06:32.227Z,99997.50
2023-03-30T16:08:59.006Z,100001.53
2023-03-30T16:11:26.506Z,99990.22
2023-03-30T16:13:53.937Z,99997.91
2023-03-30T16:16:20.752Z,99991.38
2023-03-30T16:18:47.277Z,99998.16
2023-03-30T16:21:15.640Z,99999.25
2023-03-30T16:23:42.117Z,100013.00
2023-03-30T16:26:11.841Z,99995.22
2023-03-30T16:28:40.021Z,99995.47
2023-03-30T16:31:17.201Z,100006.47
2023-03-30T16:33:43.873Z,100003.34
2023-03-30T16:36:21.118Z,100001.69
2023-03-30T16:38:48.076Z,100005.22
2023-03-30T16:41:20.561Z,100020.88
2023-03-30T16:43:47.827Z,100029.75
2023-03-30T16:46:16.402Z,100033.97
2023-03-30T16:48:43.038Z,100028.41
2023-03-30T16:51:13.838Z,100026.00
2023-03-30T16:53:41.396Z,100032.16
2023-03-30T16:56:17.447Z,100025.28
2023-03-30T16:58:44.188Z,100029.34
2023-03-30T17:01:13.310Z,100030.34
2023-03-30T17:03:40.205Z,100023.75
2023-03-30T17:06:07.122Z,100027.09
2023-03-30T17:08:34.029Z,100029.59
2023-03-30T17:11:03.598Z,100029.19
2023-03-30T17:13:31.783Z,100038.78
2023-03-30T17:16:01.025Z,100037.91
2023-03-30T17:18:28.940Z,100044.84
2023-03-30T17:21:03.831Z,100047.34
2023-03-30T17:23:32.228Z,100044.13
2023-03-30T17:26:01.153Z,100049.88
2023-03-30T17:28:33.730Z,100038.34
2023-03-30T17:31:02.866Z,100041.81
2023-03-30T17:33:31.749Z,100050.63
2023-03-30T17:36:10.330Z,100044.81
2023-03-30T17:38:36.925Z,100042.78
2023-03-30T17:41:04.386Z,100037.91
2023-03-30T17:43:30.986Z,100039.53
2023-03-30T17:45:57.769Z,100044.53
2023-03-30T17:48:25.152Z,100039.47
2023-03-30T17:50:51.563Z,100038.41
2023-03-30T17:53:20.165Z,100040.31
2023-03-30T17:55:52.402Z,100038.38
2023-03-30T17:58:25.484Z,100034.91
2023-03-30T18:00:53.535Z,100038.81
2023-03-30T18:03:22.267Z,100038.34
2023-03-30T18:05:50.366Z,100050.19
2023-03-30T18:08:21.284Z,100046.66
2023-03-30T18:10:51.880Z,100055.13
2023-03-30T18:13:20.002Z,100060.50
2023-03-30T18:15:49.489Z,100056.78
2023-03-30T18:18:23.038Z,100063.56
2023-03-30T18:20:51.537Z,100057.47
2023-03-30T18:23:18.721Z,100056.47
2023-03-30T18:25:45.477Z,100048.47
2023-03-30T18:28:23.110Z,100056.38
2023-03-30T18:30:51.012Z,100040.06
2023-03-30T18:33:17.724Z,100057.22
2023-03-30T18:35:46.979Z,100056.56
2023-03-30T18:38:15.382Z,100061.47
2023-03-30T18:40:49.139Z,100059.97
2023-03-30T18:43:16.218Z,100065.44
2023-03-30T18:45:45.874Z,100062.13
2023-03-30T18:48:14.739Z,100067.84
2023-03-30T18:50:43.585Z,100065.63
2023-03-30T18:53:12.529Z,100070.56
2023-03-30T18:55:41.664Z,100068.16
2023-03-30T18:58:20.680Z,100065.31
2023-03-30T19:00:48.781Z,100069.91
2023-03-30T19:03:16.701Z,100074.94
2023-03-30T19:05:43.696Z,100072.50
2023-03-30T19:08:15.304Z,100079.72
2023-03-30T19:10:43.432Z,100082.59
2023-03-30T19:13:14.585Z,100084.13
2023-03-30T19:15:41.747Z,100089.28
2023-03-30T19:18:08.691Z,100081.88
2023-03-30T19:20:39.537Z,100076.72
2023-03-30T19:23:06.648Z,100077.44
2023-03-30T19:25:34.089Z,100075.59
2023-03-30T19:28:04.352Z,100080.38
2023-03-30T19:30:33.730Z,100084.25
2023-03-30T19:33:04.683Z,100075.53
2023-03-30T19:35:31.959Z,100079.06
2023-03-30T19:37:58.792Z,100079.06
2023-03-30T19:40:25.423Z,100078.25
2023-03-30T19:42:52.034Z,100083.59
2023-03-30T19:45:21.131Z,100073.00
2023-03-30T19:47:47.642Z,100073.00
2023-03-30T19:50:18.005Z,100072.66
2023-03-30T19:52:50.649Z,100073.72
2023-03-30T19:55:19.071Z,100080.16
2023-03-30T19:57:45.942Z,100072.94
2023-03-30T20:00:15.715Z,100070.03
2023-03-30T20:02:45.691Z,100075.97
2023-03-30T20:05:13.167Z,100070.06
2023-03-30T20:07:40.908Z,100069.56
2023-03-30T20:10:09.663Z,100062.38
2023-03-30T20:12:36.170Z,100061.06
2023-03-30T20:15:05.713Z,100065.66
2023-03-30T20:17:33.927Z,100051.84
2023-03-30T20:20:06.533Z,100051.28
2023-03-30T20:22:34.915Z,100059.72
2023-03-30T20:25:02.469Z,100052.69
2023-03-30T20:27:29.484Z,100056.13
2023-03-30T20:29:55.945Z,100048.97
2023-03-30T20:32:23.297Z,100045.47
2023-03-30T20:34:49.857Z,100042.28
2023-03-30T20:37:16.658Z,100047.44
2023-03-30T20:39:43.856Z,100038.19
2023-03-30T20:42:10.918Z,100044.88
2023-03-30T20:44:40.804Z,100041.56
2023-03-30T20:47:08.773Z,100040.91
2023-03-30T20:49:37.619Z,100040.06
2023-03-30T20:52:04.785Z,100037.63
2023-03-30T20:54:31.429Z,100036.72
2023-03-30T20:56:58.435Z,100044.78
2023-03-30T20:59:25.436Z,100030.31
2023-03-30T21:01:52.060Z,100038.94
2023-03-30T21:04:19.723Z,100033.28
2023-03-30T21:06:46.817Z,100039.47
2023-03-30T21:09:17.581Z,100030.97
2023-03-30T21:11:44.300Z,100039.22
2023-03-30T21:14:12.263Z,100039.97
2023-03-30T21:16:41.809Z,100029.53
2023-03-30T21:19:09.576Z,100033.06
2023-03-30T21:21:37.643Z,100041.22
2023-03-30T21:24:05.971Z,100034.06
2023-03-30T21:26:32.719Z,100033.63
2023-03-30T21:28:59.738Z,100038.78
2023-03-30T21:31:26.300Z,100033.13
2023-03-30T21:33:52.902Z,100037.16
2023-03-30T21:36:19.425Z,100040.66
2023-03-30T21:38:46.389Z,100032.97
2023-03-30T21:41:15.801Z,100034.78
2023-03-30T21:43:45.120Z,100026.84
2023-03-30T21:46:14.851Z,100022.91
2023-03-30T21:48:42.783Z,100019.66
2023-03-30T21:51:13.678Z,100021.78
2023-03-30T21:53:41.538Z,100022.84
2023-03-30T21:56:09.338Z,100020.34
2023-03-30T21:58:35.922Z,100017.75
2023-03-30T22:01:11.788Z,100013.41
2023-03-30T22:03:42.805Z,100012.91
2023-03-30T22:06:12.724Z,100016.97
2023-03-30T22:08:39.581Z,100015.03
2023-03-30T22:11:10.361Z,100013.19
2023-03-30T22:13:37.217Z,100011.16
2023-03-30T22:16:11.190Z,100012.53
2023-03-30T22:18:37.777Z,100005.78
2023-03-30T22:21:07.102Z,100005.50
2023-03-30T22:23:33.880Z,100011.44
2023-03-30T22:26:00.639Z,100010.56
2023-03-30T22:28:27.292Z,100005.47
2023-03-30T22:30:54.155Z,100005.22
2023-03-30T22:33:20.666Z,99997.78
2023-03-30T22:35:48.289Z,99990.88
2023-03-30T22:38:16.105Z,99997.78
2023-03-30T22:40:42.579Z,99996.97
2023-03-30T22:43:10.444Z,99987.78
2023-03-30T22:45:37.288Z,99991.63
2023-03-30T22:48:04.714Z,99995.00
2023-03-30T22:50:31.619Z,99991.38
2023-03-30T22:52:58.156Z,99987.94
2023-03-30T22:55:25.278Z,99984.91
2023-03-30T22:57:53.615Z,99978.69
2023-03-30T23:00:21.095Z,99975.28
2023-03-30T23:02:49.302Z,99980.13
2023-03-30T23:05:17.004Z,99984.13
2023-03-30T23:07:45.989Z,99987.84
2023-03-30T23:10:15.284Z,99980.41
2023-03-30T23:12:43.089Z,99978.25
2023-03-30T23:15:11.194Z,99980.75
2023-03-30T23:17:38.113Z,99980.75
2023-03-30T23:20:06.621Z,99974.56
2023-03-30T23:22:33.055Z,99973.22
2023-03-30T23:24:59.644Z,99965.19
2023-03-30T23:27:26.537Z,99961.16
2023-03-30T23:29:53.338Z,99957.13
2023-03-30T23:32:19.794Z,99955.19
2023-03-30T23:34:46.517Z,99956.09
2023-03-30T23:37:13.043Z,99948.88
2023-03-30T23:39:39.521Z,99945.34
2023-03-30T23:42:06.479Z,99953.13
2023-03-30T23:44:33.305Z,99948.59
2023-03-30T23:47:00.316Z,99944.31
2023-03-30T23:49:27.214Z,99940.00
2023-03-30T23:51:53.745Z,99942.50
2023-03-30T23:54:20.352Z,99934.28
2023-03-30T23:56:47.018Z,99937.56
2023-03-30T23:59:13.581Z,99931.44
